GAACYT HKMO-HKKI
Flight info
| Callsign | GAACYT |
|---|---|
| Flight time | 0h 54m |
| Altitude | 38000 |
| Route | NERAG1A UTIKU DCT UTEPI DCT NEVON NEVON1B |
| Aircraft | MD11/H-SDE1E2E3FGHIJ2J3J4J5M1RWXY/LB1D1 |
Departure
| Time | 2026-04-21 12:34 |
|---|---|
| Airport | Moi International Airport (HKMO) |
Arrival
| Time | 2026-04-21 13:28 |
|---|---|
| Airport | Kisumu International Airport (HKKI) |
| Time | Latitude | Longitude | Altitude | Speed | Heading |
|---|---|---|---|---|---|
| 2026-04-21 12:33 | -4.03552 | 39.47741 | 8289 ft | 289 kts | 290° |
| 2026-04-21 12:34 | -4.02872 | 39.45810 | 8654 ft | 296 kts | 289° |
| 2026-04-21 12:34 | -4.02198 | 39.43814 | 9359 ft | 299 kts | 288° |
| 2026-04-21 12:34 | -4.01550 | 39.41839 | 10155 ft | 310 kts | 288° |
| 2026-04-21 12:34 | -4.00812 | 39.39681 | 10273 ft | 344 kts | 294° |
| 2026-04-21 12:35 | -3.99508 | 39.37564 | 10567 ft | 367 kts | 310° |
| 2026-04-21 12:35 | -3.97799 | 39.35640 | 11470 ft | 373 kts | 314° |
| 2026-04-21 12:35 | -3.95976 | 39.33766 | 12386 ft | 379 kts | 316° |
| 2026-04-21 12:35 | -3.94104 | 39.31883 | 13298 ft | 385 kts | 316° |
| 2026-04-21 12:36 | -3.92204 | 39.29966 | 14154 ft | 390 kts | 316° |
| 2026-04-21 12:36 | -3.90261 | 39.27987 | 14988 ft | 396 kts | 315° |
| 2026-04-21 12:36 | -3.88352 | 39.26026 | 15793 ft | 400 kts | 315° |
| 2026-04-21 12:36 | -3.86441 | 39.24054 | 16550 ft | 406 kts | 315° |
| 2026-04-21 12:37 | -3.84434 | 39.21977 | 17375 ft | 411 kts | 315° |
| 2026-04-21 12:37 | -3.82449 | 39.19918 | 18160 ft | 416 kts | 315° |
| 2026-04-21 12:37 | -3.80438 | 39.17832 | 18805 ft | 421 kts | 315° |
| 2026-04-21 12:37 | -3.78369 | 39.15682 | 19482 ft | 425 kts | 315° |
| 2026-04-21 12:38 | -3.76310 | 39.13544 | 20124 ft | 430 kts | 315° |
| 2026-04-21 12:38 | -3.74216 | 39.11371 | 20760 ft | 434 kts | 315° |
| 2026-04-21 12:38 | -3.72111 | 39.09186 | 21401 ft | 439 kts | 315° |
| 2026-04-21 12:38 | -3.69979 | 39.06974 | 22020 ft | 443 kts | 315° |
| 2026-04-21 12:39 | -3.67825 | 39.04738 | 22649 ft | 448 kts | 315° |
| 2026-04-21 12:39 | -3.65649 | 39.02481 | 23281 ft | 453 kts | 315° |
| 2026-04-21 12:39 | -3.63453 | 39.00203 | 23825 ft | 457 kts | 315° |
| 2026-04-21 12:39 | -3.61236 | 38.97903 | 24364 ft | 461 kts | 315° |
| 2026-04-21 12:40 | -3.59007 | 38.95592 | 24924 ft | 464 kts | 315° |
| 2026-04-21 12:40 | -3.56757 | 38.93258 | 25478 ft | 467 kts | 315° |
| 2026-04-21 12:40 | -3.54491 | 38.90908 | 26016 ft | 470 kts | 315° |
| 2026-04-21 12:40 | -3.52212 | 38.88544 | 26553 ft | 474 kts | 315° |
| 2026-04-21 12:41 | -3.49916 | 38.86164 | 27080 ft | 477 kts | 315° |
| 2026-04-21 12:41 | -3.47607 | 38.83765 | 27621 ft | 480 kts | 315° |
| 2026-04-21 12:41 | -3.45287 | 38.81351 | 28106 ft | 484 kts | 315° |
| 2026-04-21 12:41 | -3.42943 | 38.78909 | 28607 ft | 487 kts | 315° |
| 2026-04-21 12:42 | -3.40586 | 38.76454 | 29098 ft | 491 kts | 315° |
| 2026-04-21 12:42 | -3.38213 | 38.73982 | 29584 ft | 494 kts | 315° |
| 2026-04-21 12:42 | -3.35830 | 38.71499 | 30076 ft | 496 kts | 315° |
| 2026-04-21 12:42 | -3.33450 | 38.69021 | 30637 ft | 494 kts | 315° |
| 2026-04-21 12:43 | -3.31064 | 38.66536 | 31226 ft | 492 kts | 315° |
| 2026-04-21 12:43 | -3.28696 | 38.64071 | 31820 ft | 490 kts | 314° |
| 2026-04-21 12:43 | -3.26344 | 38.61621 | 32452 ft | 487 kts | 314° |
| 2026-04-21 12:43 | -3.24001 | 38.59182 | 33103 ft | 483 kts | 314° |
| 2026-04-21 12:44 | -3.21677 | 38.56764 | 33719 ft | 480 kts | 314° |
| 2026-04-21 12:44 | -3.19372 | 38.54364 | 34290 ft | 477 kts | 314° |
| 2026-04-21 12:44 | -3.17856 | 38.52787 | 34615 ft | 475 kts | 314° |
| 2026-04-21 12:44 | -3.15565 | 38.50402 | 35104 ft | 473 kts | 314° |
| 2026-04-21 12:45 | -3.13308 | 38.48053 | 35546 ft | 471 kts | 314° |
| 2026-04-21 12:45 | -3.11024 | 38.45677 | 36036 ft | 469 kts | 314° |
| 2026-04-21 12:45 | -3.08763 | 38.43324 | 36506 ft | 468 kts | 314° |
| 2026-04-21 12:45 | -3.06522 | 38.40992 | 36864 ft | 467 kts | 313° |
| 2026-04-21 12:46 | -3.04266 | 38.38644 | 37239 ft | 466 kts | 313° |
| 2026-04-21 12:46 | -3.02018 | 38.36306 | 37620 ft | 464 kts | 313° |
| 2026-04-21 12:46 | -2.99792 | 38.33992 | 37859 ft | 465 kts | 313° |
| 2026-04-21 12:47 | -2.95279 | 38.29296 | 37909 ft | 472 kts | 313° |
| 2026-04-21 12:47 | -2.90721 | 38.24557 | 37914 ft | 473 kts | 313° |
| 2026-04-21 12:48 | -2.86151 | 38.19807 | 37921 ft | 472 kts | 313° |
| 2026-04-21 12:48 | -2.81597 | 38.15073 | 37927 ft | 472 kts | 314° |
| 2026-04-21 12:49 | -2.77042 | 38.10337 | 37933 ft | 472 kts | 314° |
| 2026-04-21 12:49 | -2.72491 | 38.05607 | 37935 ft | 472 kts | 314° |
| 2026-04-21 12:50 | -2.67942 | 38.00879 | 37943 ft | 472 kts | 314° |
| 2026-04-21 12:50 | -2.63380 | 37.96138 | 37950 ft | 472 kts | 314° |
| 2026-04-21 12:51 | -2.58824 | 37.91403 | 37960 ft | 473 kts | 314° |
| 2026-04-21 12:51 | -2.54262 | 37.86664 | 37970 ft | 472 kts | 314° |
| 2026-04-21 12:52 | -2.49710 | 37.81935 | 37977 ft | 472 kts | 314° |
| 2026-04-21 12:52 | -2.45150 | 37.77198 | 37982 ft | 473 kts | 314° |
| 2026-04-21 12:53 | -2.40589 | 37.72460 | 37991 ft | 473 kts | 314° |
| 2026-04-21 12:53 | -2.36025 | 37.67720 | 37994 ft | 472 kts | 314° |
| 2026-04-21 12:54 | -2.31473 | 37.62994 | 38004 ft | 472 kts | 314° |
| 2026-04-21 12:54 | -2.26916 | 37.58264 | 38010 ft | 472 kts | 314° |
| 2026-04-21 12:55 | -2.22361 | 37.53535 | 38021 ft | 473 kts | 314° |
| 2026-04-21 12:55 | -2.17839 | 37.48841 | 38029 ft | 473 kts | 314° |
| 2026-04-21 12:56 | -2.13224 | 37.44050 | 38041 ft | 473 kts | 314° |
| 2026-04-21 12:56 | -2.08691 | 37.39345 | 38054 ft | 473 kts | 314° |
| 2026-04-21 12:57 | -2.04088 | 37.34569 | 38065 ft | 473 kts | 314° |
| 2026-04-21 12:57 | -1.99550 | 37.29859 | 38075 ft | 473 kts | 314° |
| 2026-04-21 12:58 | -1.95050 | 37.25063 | 38081 ft | 473 kts | 310° |
| 2026-04-21 12:58 | -1.91005 | 37.19862 | 38092 ft | 474 kts | 307° |
| 2026-04-21 12:59 | -1.87124 | 37.14553 | 38102 ft | 474 kts | 307° |
| 2026-04-21 12:59 | -1.83215 | 37.09245 | 38109 ft | 474 kts | 307° |
| 2026-04-21 13:00 | -1.79285 | 37.03960 | 38115 ft | 474 kts | 307° |
| 2026-04-21 13:00 | -1.75350 | 36.98688 | 38123 ft | 474 kts | 307° |
| 2026-04-21 13:01 | -1.71402 | 36.93401 | 38136 ft | 474 kts | 307° |
| 2026-04-21 13:01 | -1.67456 | 36.88116 | 38141 ft | 474 kts | 308° |
| 2026-04-21 13:02 | -1.63512 | 36.82829 | 38139 ft | 474 kts | 307° |
| 2026-04-21 13:02 | -1.57599 | 36.74904 | 38137 ft | 475 kts | 307° |
| 2026-04-21 13:03 | -1.53680 | 36.69658 | 38137 ft | 475 kts | 308° |
| 2026-04-21 13:03 | -1.49711 | 36.64350 | 38123 ft | 475 kts | 307° |
| 2026-04-21 13:04 | -1.45743 | 36.59029 | 38121 ft | 475 kts | 307° |
| 2026-04-21 13:04 | -1.41828 | 36.53780 | 38104 ft | 475 kts | 308° |
| 2026-04-21 13:05 | -1.37836 | 36.48433 | 38086 ft | 476 kts | 307° |
| 2026-04-21 13:05 | -1.33882 | 36.43137 | 38075 ft | 476 kts | 308° |
| 2026-04-21 13:06 | -1.29918 | 36.37833 | 38074 ft | 476 kts | 308° |
| 2026-04-21 13:06 | -1.26011 | 36.32604 | 37767 ft | 460 kts | 307° |
| 2026-04-21 13:07 | -1.24130 | 36.30082 | 37459 ft | 451 kts | 308° |
| 2026-04-21 13:07 | -1.22248 | 36.27562 | 36943 ft | 449 kts | 307° |
| 2026-04-21 13:07 | -1.20383 | 36.25065 | 36422 ft | 449 kts | 307° |
| 2026-04-21 13:07 | -1.18517 | 36.22567 | 35926 ft | 450 kts | 307° |
| 2026-04-21 13:08 | -1.16642 | 36.20059 | 35425 ft | 451 kts | 307° |
| 2026-04-21 13:08 | -1.14763 | 36.17542 | 34919 ft | 452 kts | 307° |
| 2026-04-21 13:08 | -1.12891 | 36.15035 | 34387 ft | 453 kts | 307° |
| 2026-04-21 13:08 | -1.10999 | 36.12501 | 33865 ft | 454 kts | 307° |
| 2026-04-21 13:09 | -1.09107 | 36.09967 | 33315 ft | 456 kts | 307° |
| 2026-04-21 13:09 | -1.07194 | 36.07404 | 32791 ft | 460 kts | 307° |
| 2026-04-21 13:09 | -1.05273 | 36.04833 | 32252 ft | 463 kts | 307° |
| 2026-04-21 13:09 | -1.03344 | 36.02251 | 31695 ft | 466 kts | 307° |
| 2026-04-21 13:10 | -1.01397 | 35.99644 | 31146 ft | 470 kts | 308° |
| 2026-04-21 13:10 | -0.99436 | 35.97020 | 30585 ft | 473 kts | 308° |
| 2026-04-21 13:10 | -0.97472 | 35.94390 | 29992 ft | 476 kts | 308° |
| 2026-04-21 13:10 | -0.95481 | 35.91724 | 29363 ft | 478 kts | 308° |
| 2026-04-21 13:11 | -0.93494 | 35.89065 | 28762 ft | 480 kts | 308° |
| 2026-04-21 13:11 | -0.91501 | 35.86399 | 28178 ft | 481 kts | 308° |
| 2026-04-21 13:11 | -0.89507 | 35.83728 | 27585 ft | 482 kts | 308° |
| 2026-04-21 13:11 | -0.87485 | 35.81020 | 27018 ft | 483 kts | 308° |
| 2026-04-21 13:12 | -0.85472 | 35.78327 | 26438 ft | 483 kts | 307° |
| 2026-04-21 13:12 | -0.83501 | 35.75690 | 25831 ft | 481 kts | 308° |
| 2026-04-21 13:12 | -0.81508 | 35.73022 | 25224 ft | 476 kts | 308° |
| 2026-04-21 13:12 | -0.79537 | 35.70384 | 24623 ft | 472 kts | 308° |
| 2026-04-21 13:13 | -0.77583 | 35.67768 | 24021 ft | 468 kts | 308° |
| 2026-04-21 13:13 | -0.75649 | 35.65180 | 23387 ft | 463 kts | 308° |
| 2026-04-21 13:13 | -0.73728 | 35.62609 | 22726 ft | 458 kts | 308° |
| 2026-04-21 13:13 | -0.71835 | 35.60076 | 22112 ft | 454 kts | 308° |
| 2026-04-21 13:14 | -0.69952 | 35.57556 | 21526 ft | 450 kts | 308° |
| 2026-04-21 13:14 | -0.68089 | 35.55062 | 20937 ft | 446 kts | 308° |
| 2026-04-21 13:14 | -0.66245 | 35.52595 | 20361 ft | 442 kts | 308° |
| 2026-04-21 13:14 | -0.64411 | 35.50141 | 19808 ft | 439 kts | 308° |
| 2026-04-21 13:15 | -0.62600 | 35.47717 | 19245 ft | 435 kts | 308° |
| 2026-04-21 13:15 | -0.60802 | 35.45311 | 18685 ft | 431 kts | 308° |
| 2026-04-21 13:15 | -0.59004 | 35.42906 | 18102 ft | 428 kts | 308° |
| 2026-04-21 13:15 | -0.57231 | 35.40533 | 17499 ft | 424 kts | 308° |
| 2026-04-21 13:16 | -0.55475 | 35.38184 | 16936 ft | 420 kts | 308° |
| 2026-04-21 13:16 | -0.53739 | 35.35861 | 16375 ft | 417 kts | 308° |
| 2026-04-21 13:16 | -0.52002 | 35.33537 | 15844 ft | 413 kts | 308° |
| 2026-04-21 13:16 | -0.50291 | 35.31248 | 15309 ft | 410 kts | 308° |
| 2026-04-21 13:17 | -0.48591 | 35.28973 | 14805 ft | 406 kts | 308° |
| 2026-04-21 13:17 | -0.46913 | 35.26728 | 14276 ft | 403 kts | 308° |
| 2026-04-21 13:17 | -0.45065 | 35.24646 | 13755 ft | 397 kts | 319° |
| 2026-04-21 13:17 | -0.42904 | 35.22947 | 13218 ft | 393 kts | 326° |
| 2026-04-21 13:18 | -0.40639 | 35.21436 | 12707 ft | 390 kts | 328° |
| 2026-04-21 13:18 | -0.38359 | 35.19996 | 12214 ft | 386 kts | 329° |
| 2026-04-21 13:18 | -0.36089 | 35.18570 | 11729 ft | 384 kts | 329° |
| 2026-04-21 13:18 | -0.33863 | 35.17157 | 11265 ft | 381 kts | 328° |
| 2026-04-21 13:19 | -0.31626 | 35.15720 | 10946 ft | 378 kts | 328° |
| 2026-04-21 13:19 | -0.29485 | 35.14331 | 10824 ft | 352 kts | 328° |
| 2026-04-21 13:19 | -0.27540 | 35.13059 | 10701 ft | 317 kts | 328° |
| 2026-04-21 13:19 | -0.25754 | 35.11892 | 10582 ft | 303 kts | 328° |
| 2026-04-21 13:20 | -0.24595 | 35.11136 | 10512 ft | 300 kts | 328° |
| 2026-04-21 13:20 | -0.22258 | 35.09612 | 10370 ft | 299 kts | 328° |
| 2026-04-21 13:20 | -0.20520 | 35.08478 | 10107 ft | 299 kts | 328° |
| 2026-04-21 13:20 | -0.18784 | 35.07345 | 9766 ft | 297 kts | 328° |
| 2026-04-21 13:21 | -0.17084 | 35.06233 | 9387 ft | 295 kts | 328° |
| 2026-04-21 13:21 | -0.15374 | 35.05116 | 9037 ft | 293 kts | 328° |
| 2026-04-21 13:21 | -0.13710 | 35.03954 | 8902 ft | 293 kts | 321° |
| 2026-04-21 13:21 | -0.12425 | 35.02383 | 8557 ft | 291 kts | 298° |
| 2026-04-21 13:22 | -0.11716 | 35.00602 | 8015 ft | 261 kts | 288° |
| 2026-04-21 13:22 | -0.11238 | 34.98950 | 7498 ft | 236 kts | 285° |
| 2026-04-21 13:22 | -0.10823 | 34.97441 | 7046 ft | 215 kts | 284° |
| 2026-04-21 13:22 | -0.10438 | 34.96063 | 6713 ft | 196 kts | 284° |
| 2026-04-21 13:23 | -0.10070 | 34.94754 | 6403 ft | 192 kts | 284° |
| 2026-04-21 13:23 | -0.09704 | 34.93483 | 6078 ft | 189 kts | 284° |
| 2026-04-21 13:23 | -0.09347 | 34.92229 | 5895 ft | 188 kts | 284° |
| 2026-04-21 13:23 | -0.08986 | 34.90974 | 5741 ft | 188 kts | 284° |
| 2026-04-21 13:24 | -0.08624 | 34.89726 | 5576 ft | 187 kts | 284° |
| 2026-04-21 13:24 | -0.08262 | 34.88483 | 5512 ft | 187 kts | 284° |
| 2026-04-21 13:24 | -0.07896 | 34.87228 | 5409 ft | 188 kts | 284° |
| 2026-04-21 13:24 | -0.07532 | 34.85981 | 5383 ft | 188 kts | 284° |
| 2026-04-21 13:25 | -0.07170 | 34.84746 | 5380 ft | 176 kts | 284° |
| 2026-04-21 13:25 | -0.06839 | 34.83628 | 5357 ft | 163 kts | 284° |
| 2026-04-21 13:25 | -0.06519 | 34.82542 | 5413 ft | 162 kts | 284° |
| 2026-04-21 13:25 | -0.06267 | 34.81477 | 5170 ft | 153 kts | 268° |
| 2026-04-21 13:26 | -0.06436 | 34.80458 | 4729 ft | 147 kts | 254° |
| 2026-04-21 13:26 | -0.06668 | 34.79425 | 4710 ft | 154 kts | 258° |
| 2026-04-21 13:26 | -0.06853 | 34.78361 | 4603 ft | 154 kts | 258° |
| 2026-04-21 13:26 | -0.07006 | 34.77312 | 4651 ft | 154 kts | 258° |
| 2026-04-21 13:27 | -0.07151 | 34.76228 | 4519 ft | 155 kts | 259° |
| 2026-04-21 13:27 | -0.07389 | 34.75204 | 4213 ft | 151 kts | 245° |
| 2026-04-21 13:27 | -0.07839 | 34.74251 | 3982 ft | 149 kts | 238° |
| 2026-04-21 13:27 | -0.08337 | 34.73350 | 3815 ft | 145 kts | 240° |
| 2026-04-21 13:28 | -0.08753 | 34.72585 | 3774 ft | 110 kts | 242° |
| 2026-04-21 13:28 | -0.09016 | 34.72097 | 3747 ft | 45 kts | 241° |
| 2026-04-21 13:28 | -0.09062 | 34.71930 | 3747 ft | 15 kts | 273° |
| 2026-04-21 13:28 | -0.09068 | 34.71911 | 3747 ft | 0 kts | 235° |
| 2026-04-21 13:29 | -0.09069 | 34.71910 | 3747 ft | 1 kts | 230° |
| 2026-04-21 13:29 | -0.09088 | 34.71903 | 3747 ft | 4 kts | 187° |
| 2026-04-21 13:29 | -0.09104 | 34.71918 | 3747 ft | 3 kts | 114° |
| 2026-04-21 13:29 | -0.09093 | 34.71952 | 3747 ft | 10 kts | 70° |
| 2026-04-21 13:30 | -0.09047 | 34.72046 | 3747 ft | 21 kts | 63° |
| 2026-04-21 13:30 | -0.08994 | 34.72145 | 3748 ft | 27 kts | 60° |
| 2026-04-21 13:30 | -0.08898 | 34.72317 | 3766 ft | 29 kts | 61° |
| 2026-04-21 13:30 | -0.08806 | 34.72487 | 3773 ft | 29 kts | 62° |
| 2026-04-21 13:31 | -0.08710 | 34.72664 | 3777 ft | 29 kts | 61° |
| 2026-04-21 13:31 | -0.08625 | 34.72818 | 3787 ft | 12 kts | 56° |
| 2026-04-21 13:31 | -0.08591 | 34.72832 | 3785 ft | 4 kts | 359° |
| 2026-04-21 13:31 | -0.08544 | 34.72813 | 3784 ft | 12 kts | 333° |
| 2026-04-21 13:32 | -0.08496 | 34.72790 | 3784 ft | 1 kts | 347° |
| 2026-04-21 13:32 | -0.08493 | 34.72790 | 3784 ft | 2 kts | 350° |
| 2026-04-21 13:32 | -0.08469 | 34.72795 | 3784 ft | 5 kts | 20° |
| 2026-04-21 13:32 | -0.08441 | 34.72828 | 3785 ft | 9 kts | 56° |
| 2026-04-21 13:33 | -0.08412 | 34.72867 | 3792 ft | 3 kts | 38° |
| 2026-04-21 13:33 | -0.08374 | 34.72862 | 3788 ft | 9 kts | 328° |
| 2026-04-21 13:33 | -0.08335 | 34.72840 | 3792 ft | 11 kts | 332° |
| 2026-04-21 13:33 | -0.08315 | 34.72829 | 3791 ft | 0 kts | 332° |
| 2026-04-21 13:34 | -0.08310 | 34.72827 | 3788 ft | 1 kts | 332° |
| 2026-04-21 13:34 | -0.08306 | 34.72825 | 3786 ft | 0 kts | 332° |
| 2026-04-21 13:34 | -0.08304 | 34.72824 | 3786 ft | 1 kts | 331° |
| 2026-04-21 13:34 | -0.08301 | 34.72822 | 3785 ft | 0 kts | 330° |